createdAt,value
2018-01-25T00:00:24.276Z,44.60
2018-01-25T00:02:51.884Z,44.60
2018-01-25T00:05:20.265Z,44.40
2018-01-25T00:07:47.925Z,44.80
2018-01-25T00:10:23.829Z,44.80
2018-01-25T00:12:52.711Z,44.60
2018-01-25T00:15:20.320Z,45.50
2018-01-25T00:17:47.946Z,45.30
2018-01-25T00:20:15.602Z,44.80
2018-01-25T00:22:43.210Z,45.70
2018-01-25T00:25:10.854Z,45.10
2018-01-25T00:27:38.506Z,45.50
2018-01-25T00:30:06.868Z,46.40
2018-01-25T00:32:34.476Z,46.40
2018-01-25T00:35:02.889Z,46.80
2018-01-25T00:37:30.502Z,46.80
2018-01-25T00:39:58.110Z,46.90
2018-01-25T00:42:26.510Z,47.10
2018-01-25T00:44:54.876Z,46.10
2018-01-25T00:47:22.487Z,46.10
2018-01-25T00:49:50.126Z,46.00
2018-01-25T00:52:17.732Z,46.50
2018-01-25T00:54:45.340Z,46.60
2018-01-25T00:57:12.974Z,47.00
2018-01-25T00:59:40.582Z,46.80
2018-01-25T01:02:08.194Z,46.90
2018-01-25T01:04:35.836Z,46.40
2018-01-25T01:07:03.515Z,46.10
2018-01-25T01:09:31.125Z,46.50
2018-01-25T01:11:58.767Z,46.20
2018-01-25T01:14:26.377Z,46.20
2018-01-25T01:16:54.748Z,46.50
2018-01-25T01:19:22.387Z,46.50
2018-01-25T01:21:49.998Z,46.90
2018-01-25T01:24:17.602Z,46.70
2018-01-25T01:26:46.004Z,46.30
2018-01-25T01:29:13.616Z,46.30
2018-01-25T01:31:41.224Z,46.50
2018-01-25T01:34:09.631Z,46.80
2018-01-25T01:36:38.003Z,47.30
2018-01-25T01:39:05.610Z,47.20
2018-01-25T01:41:33.262Z,45.90
2018-01-25T01:44:01.651Z,45.70
2018-01-25T01:46:30.028Z,45.60
2018-01-25T01:48:57.674Z,45.60
2018-01-25T01:51:25.289Z,45.60
2018-01-25T01:53:53.673Z,45.70
2018-01-25T01:56:22.086Z,46.00
2018-01-25T01:58:50.457Z,45.70
2018-01-25T02:01:18.833Z,46.40
2018-01-25T02:03:46.476Z,46.00
2018-01-25T02:06:14.083Z,46.90
2018-01-25T02:08:41.700Z,45.80
2018-01-25T02:11:09.343Z,45.80
2018-01-25T02:13:36.952Z,46.10
2018-01-25T02:16:04.566Z,46.60
2018-01-25T02:18:32.197Z,46.20
2018-01-25T02:20:59.802Z,47.00
2018-01-25T02:23:27.396Z,47.20
2018-01-25T02:25:55.037Z,47.50
2018-01-25T02:28:22.645Z,47.70
2018-01-25T02:30:50.262Z,48.80
2018-01-25T02:33:17.907Z,49.00
2018-01-25T02:35:45.544Z,49.10
2018-01-25T02:38:13.150Z,49.00
2018-01-25T02:40:40.793Z,49.40
2018-01-25T02:43:08.401Z,49.50
2018-01-25T02:45:36.016Z,48.90
2018-01-25T02:48:03.661Z,49.20
2018-01-25T02:50:32.033Z,51.40
2018-01-25T02:52:59.641Z,51.40
2018-01-25T02:55:27.277Z,52.70
2018-01-25T02:57:54.877Z,53.80
2018-01-25T03:00:23.246Z,55.70
2018-01-25T03:02:50.890Z,55.60
2018-01-25T03:05:18.498Z,57.00
2018-01-25T03:07:46.101Z,58.70
2018-01-25T03:10:13.747Z,60.20
2018-01-25T03:12:41.364Z,60.70
2018-01-25T03:15:08.969Z,60.90
2018-01-25T03:17:36.628Z,62.20
2018-01-25T03:20:04.233Z,64.90
2018-01-25T03:22:31.836Z,67.60
2018-01-25T03:25:00.274Z,66.30
2018-01-25T03:27:27.881Z,66.30
2018-01-25T03:29:55.492Z,67.70
2018-01-25T03:32:23.142Z,65.60
2018-01-25T03:34:51.515Z,60.20
2018-01-25T03:37:19.117Z,60.20
2018-01-25T03:39:47.532Z,55.30
2018-01-25T03:42:15.142Z,55.30
2018-01-25T03:44:42.786Z,52.60
2018-01-25T03:47:10.425Z,51.60
2018-01-25T03:49:38.803Z,49.10
2018-01-25T03:52:06.418Z,49.10
2018-01-25T03:54:34.063Z,48.20
2018-01-25T03:57:02.479Z,48.90
2018-01-25T03:59:30.084Z,48.80
2018-01-25T04:01:57.756Z,50.50
2018-01-25T04:04:25.370Z,49.10
2018-01-25T04:06:52.977Z,49.20
2018-01-25T04:09:20.622Z,47.90
2018-01-25T04:11:49.001Z,49.90
2018-01-25T04:14:16.609Z,49.80
2018-01-25T04:16:44.253Z,49.80
2018-01-25T04:19:12.625Z,52.20
2018-01-25T04:21:40.235Z,51.50
2018-01-25T04:24:08.645Z,53.00
2018-01-25T04:26:36.257Z,53.00
2018-01-25T04:29:03.865Z,54.10
2018-01-25T04:31:32.274Z,56.10
2018-01-25T04:33:59.884Z,55.90
2018-01-25T04:36:27.489Z,58.10
2018-01-25T04:38:55.130Z,59.50
2018-01-25T04:41:22.738Z,60.20
2018-01-25T04:43:50.345Z,58.30
2018-01-25T04:46:17.979Z,57.10
2018-01-25T04:48:45.601Z,55.40
2018-01-25T04:51:13.218Z,53.90
2018-01-25T04:53:40.865Z,53.20
2018-01-25T04:56:08.476Z,52.90
2018-01-25T04:58:36.103Z,51.50
2018-01-25T05:01:03.750Z,50.50
2018-01-25T05:03:32.112Z,49.10
2018-01-25T05:05:59.726Z,49.10
2018-01-25T05:08:27.361Z,48.20
2018-01-25T05:10:54.968Z,48.10
2018-01-25T05:13:23.332Z,46.60
2018-01-25T05:15:50.974Z,46.60
2018-01-25T05:18:18.578Z,45.70
2018-01-25T05:20:46.185Z,44.80
2018-01-25T05:23:13.821Z,44.70
2018-01-25T05:25:41.437Z,45.00
2018-01-25T05:28:09.055Z,44.40
2018-01-25T05:30:36.700Z,45.20
2018-01-25T05:33:04.309Z,44.10
2018-01-25T05:35:31.912Z,44.40
2018-01-25T05:38:00.320Z,43.80
2018-01-25T05:40:28.692Z,43.70
2018-01-25T05:42:57.064Z,44.30
2018-01-25T05:45:24.699Z,44.20
2018-01-25T05:47:52.307Z,44.30
2018-01-25T05:50:19.904Z,44.10
2018-01-25T05:52:47.549Z,44.00
2018-01-25T05:55:15.268Z,43.50
2018-01-25T05:57:42.853Z,44.00
2018-01-25T06:00:10.505Z,43.70
2018-01-25T06:02:38.141Z,44.40
2018-01-25T06:05:05.753Z,43.40
2018-01-25T06:07:34.169Z,43.40
2018-01-25T06:10:01.790Z,43.30
2018-01-25T06:12:29.397Z,42.80
2018-01-25T06:14:57.817Z,41.70
2018-01-25T06:17:25.541Z,41.70
2018-01-25T06:19:53.150Z,42.50
2018-01-25T06:22:21.714Z,42.70
2018-01-25T06:24:49.340Z,42.80
2018-01-25T06:27:16.952Z,42.40
2018-01-25T06:29:44.598Z,42.20
2018-01-25T06:32:12.233Z,43.00
2018-01-25T06:34:40.618Z,42.50
2018-01-25T06:37:09.040Z,42.20
2018-01-25T06:39:36.653Z,42.70
2018-01-25T06:42:04.252Z,42.60
2018-01-25T06:44:31.895Z,43.20
2018-01-25T06:46:59.509Z,43.50
2018-01-25T06:49:27.877Z,44.10
2018-01-25T06:51:55.525Z,44.10
2018-01-25T06:54:23.129Z,44.10
2018-01-25T06:56:50.750Z,43.80
2018-01-25T06:59:18.401Z,44.10
2018-01-25T07:01:46.773Z,44.00
2018-01-25T07:04:14.801Z,44.00
2018-01-25T07:06:42.443Z,43.60
2018-01-25T07:09:10.818Z,43.60
2018-01-25T07:11:38.421Z,43.60
2018-01-25T07:14:06.837Z,43.90
2018-01-25T07:16:34.508Z,43.80
2018-01-25T07:19:02.109Z,44.00
2018-01-25T07:21:29.753Z,44.40
2018-01-25T07:23:57.360Z,44.00
2018-01-25T07:26:24.977Z,43.80
2018-01-25T07:28:53.390Z,43.80
2018-01-25T07:31:20.994Z,43.70
2018-01-25T07:33:48.597Z,44.40
2018-01-25T07:36:16.245Z,43.50
2018-01-25T07:38:43.845Z,43.70
2018-01-25T07:41:11.444Z,43.90
2018-01-25T07:43:39.850Z,44.40
2018-01-25T07:46:07.454Z,44.30
2018-01-25T07:48:35.069Z,44.20
2018-01-25T07:51:03.520Z,44.50
2018-01-25T07:53:31.117Z,43.80
2018-01-25T07:55:58.745Z,44.00
2018-01-25T07:58:26.444Z,44.20
2018-01-25T08:00:54.061Z,44.80
2018-01-25T08:03:22.448Z,45.70
2018-01-25T08:05:50.855Z,46.00
2018-01-25T08:08:19.234Z,45.30
2018-01-25T08:10:47.741Z,45.20
2018-01-25T08:13:21.804Z,45.20
2018-01-25T08:15:49.409Z,45.20
2018-01-25T08:18:17.016Z,46.40
2018-01-25T08:20:44.648Z,45.60
2018-01-25T08:23:12.255Z,46.00
2018-01-25T08:25:40.624Z,46.10
2018-01-25T08:28:08.277Z,46.00
2018-01-25T08:30:35.926Z,46.30
2018-01-25T08:33:03.556Z,46.30
2018-01-25T08:35:31.204Z,46.30
2018-01-25T08:37:58.801Z,46.20
2018-01-25T08:40:26.410Z,45.40
2018-01-25T08:42:54.049Z,44.50
2018-01-25T08:45:21.654Z,45.10
2018-01-25T08:47:49.254Z,44.50
2018-01-25T08:50:16.897Z,43.80
2018-01-25T08:52:44.509Z,43.90
2018-01-25T08:55:12.116Z,44.70
2018-01-25T08:57:39.758Z,43.70
2018-01-25T09:00:07.364Z,44.40
2018-01-25T09:02:34.977Z,44.50
2018-01-25T09:05:02.613Z,44.70
2018-01-25T09:07:30.229Z,44.80
2018-01-25T09:09:57.833Z,44.50
2018-01-25T09:12:25.472Z,43.90
2018-01-25T09:14:53.082Z,44.30
2018-01-25T09:17:20.693Z,44.20
2018-01-25T09:19:49.106Z,43.00
2018-01-25T09:22:16.814Z,42.90
2018-01-25T09:24:44.431Z,43.30
2018-01-25T09:27:12.845Z,42.90
2018-01-25T09:29:40.457Z,42.70
2018-01-25T09:32:08.060Z,42.30
2018-01-25T09:34:35.715Z,42.50
2018-01-25T09:37:03.320Z,42.70
2018-01-25T09:39:31.701Z,42.20
2018-01-25T09:41:59.345Z,42.20
2018-01-25T09:44:26.956Z,40.90
2018-01-25T09:46:55.340Z,41.60
2018-01-25T09:49:22.989Z,41.50
2018-01-25T09:51:50.592Z,41.50
2018-01-25T09:54:18.210Z,41.00
2018-01-25T09:56:45.873Z,41.70
2018-01-25T09:59:13.484Z,41.20
2018-01-25T10:01:41.097Z,41.40
2018-01-25T10:04:09.517Z,41.30
2018-01-25T10:06:37.132Z,41.30
2018-01-25T10:09:04.752Z,41.10
2018-01-25T10:11:32.405Z,41.10
2018-01-25T10:14:00.781Z,42.10
2018-01-25T10:16:28.388Z,42.10
2018-01-25T10:18:56.801Z,41.30
2018-01-25T10:21:24.425Z,41.30
2018-01-25T10:23:52.049Z,40.10
2018-01-25T10:26:19.743Z,40.50
2018-01-25T10:28:47.358Z,39.60
2018-01-25T10:31:15.733Z,38.80
2018-01-25T10:33:43.386Z,38.80
2018-01-25T10:36:10.996Z,39.10
2018-01-25T10:38:39.373Z,39.00
2018-01-25T10:41:07.017Z,38.90
2018-01-25T10:43:34.650Z,38.80
2018-01-25T10:46:03.031Z,39.10
2018-01-25T10:48:30.677Z,39.10
2018-01-25T10:50:58.284Z,39.20
2018-01-25T10:53:26.661Z,40.00
2018-01-25T10:55:54.302Z,40.00
2018-01-25T10:58:21.912Z,40.90
2018-01-25T11:00:55.286Z,41.00
2018-01-25T11:03:22.910Z,40.60
2018-01-25T11:05:50.533Z,40.70
2018-01-25T11:08:18.176Z,40.80
2018-01-25T11:10:45.796Z,40.30
2018-01-25T11:13:13.409Z,40.50
2018-01-25T11:15:41.817Z,41.40
2018-01-25T11:18:09.441Z,41.40
2018-01-25T11:20:37.054Z,41.50
2018-01-25T11:23:04.698Z,41.90
2018-01-25T11:25:32.317Z,42.20
2018-01-25T11:27:59.924Z,42.60
2018-01-25T11:30:27.582Z,41.10
2018-01-25T11:32:55.194Z,41.60
2018-01-25T11:35:22.813Z,41.20
2018-01-25T11:37:50.464Z,40.80
2018-01-25T11:40:18.074Z,40.40
2018-01-25T11:42:45.682Z,40.30
2018-01-25T11:45:13.333Z,40.20
2018-01-25T11:47:40.941Z,40.10
2018-01-25T11:50:08.562Z,40.80
2018-01-25T11:52:36.204Z,40.50
2018-01-25T11:55:04.581Z,39.70
2018-01-25T11:57:32.201Z,39.30
2018-01-25T11:59:59.860Z,39.30
2018-01-25T12:02:28.257Z,39.90
2018-01-25T12:04:56.632Z,39.70
2018-01-25T12:07:25.055Z,38.80
2018-01-25T12:09:52.672Z,38.70
2018-01-25T12:12:20.288Z,39.40
2018-01-25T12:14:48.713Z,38.20
2018-01-25T12:17:16.358Z,38.20
2018-01-25T12:19:43.980Z,37.60
2018-01-25T12:22:11.630Z,38.00
2018-01-25T12:24:39.257Z,37.20
2018-01-25T12:27:07.645Z,37.30
2018-01-25T12:29:35.305Z,37.30
2018-01-25T12:32:02.922Z,38.00
2018-01-25T12:34:31.298Z,37.60
2018-01-25T12:36:59.721Z,37.90
2018-01-25T12:39:27.337Z,37.70
2018-01-25T12:41:55.009Z,37.20
2018-01-25T12:44:22.681Z,35.90
2018-01-25T12:46:50.284Z,36.40
2018-01-25T12:49:18.661Z,36.00
2018-01-25T12:51:46.305Z,36.00
2018-01-25T12:54:13.913Z,36.00
2018-01-25T12:56:41.521Z,36.10
2018-01-25T12:59:09.168Z,36.30
2018-01-25T13:01:36.785Z,37.10
2018-01-25T13:04:04.397Z,36.90
2018-01-25T13:06:32.043Z,36.80
2018-01-25T13:08:59.656Z,37.30
2018-01-25T13:11:27.276Z,37.90
2018-01-25T13:13:54.932Z,37.20
2018-01-25T13:16:22.549Z,37.20
2018-01-25T13:18:50.164Z,37.40
2018-01-25T13:21:18.589Z,38.40
2018-01-25T13:23:46.204Z,38.30
2018-01-25T13:26:13.822Z,38.30
2018-01-25T13:28:41.476Z,38.50
2018-01-25T13:31:09.857Z,39.50
2018-01-25T13:33:42.627Z,39.60
2018-01-25T13:36:10.955Z,38.80
2018-01-25T13:38:39.337Z,39.10
2018-01-25T13:41:06.995Z,39.00
2018-01-25T13:43:34.608Z,39.00
2018-01-25T13:46:02.226Z,39.30
2018-01-25T13:48:29.887Z,39.70
2018-01-25T13:50:57.507Z,40.50
2018-01-25T13:53:25.125Z,39.90
2018-01-25T13:55:52.777Z,40.30
2018-01-25T13:58:21.153Z,39.60
2018-01-25T14:00:49.533Z,39.70
2018-01-25T14:03:17.189Z,39.70
2018-01-25T14:05:44.801Z,39.80
2018-01-25T14:08:13.181Z,40.30
2018-01-25T14:10:40.836Z,40.20
2018-01-25T14:13:08.456Z,39.70
2018-01-25T14:15:36.073Z,39.80
2018-01-25T14:18:03.725Z,39.90
2018-01-25T14:20:31.338Z,40.40
2018-01-25T14:22:58.961Z,40.00
2018-01-25T14:25:26.612Z,41.30
2018-01-25T14:27:55.055Z,40.90
2018-01-25T14:30:22.665Z,40.70
2018-01-25T14:32:51.085Z,40.00
2018-01-25T14:35:18.705Z,39.80
2018-01-25T14:37:46.316Z,40.80
2018-01-25T14:40:14.761Z,40.10
2018-01-25T14:42:42.374Z,40.00
2018-01-25T14:45:10.830Z,40.90
2018-01-25T14:47:38.481Z,40.10
2018-01-25T14:50:06.084Z,40.40
2018-01-25T14:52:33.753Z,40.20
2018-01-25T14:55:01.400Z,40.70
2018-01-25T14:57:29.100Z,40.80
2018-01-25T14:59:56.710Z,40.40
2018-01-25T15:02:24.352Z,40.50
2018-01-25T15:04:51.961Z,40.40
2018-01-25T15:07:20.361Z,40.50
2018-01-25T15:09:48.777Z,40.80
2018-01-25T15:12:16.393Z,40.80
2018-01-25T15:14:44.009Z,40.80
2018-01-25T15:17:12.423Z,40.90
2018-01-25T15:19:40.045Z,40.90
2018-01-25T15:22:07.668Z,41.50
2018-01-25T15:24:35.318Z,40.90
2018-01-25T15:27:03.696Z,41.30
2018-01-25T15:29:31.305Z,41.20
2018-01-25T15:31:58.981Z,41.60
2018-01-25T15:34:26.597Z,41.70
2018-01-25T15:36:54.204Z,40.90
2018-01-25T15:39:22.624Z,41.30
2018-01-25T15:41:50.229Z,41.30
2018-01-25T15:44:17.887Z,41.10
2018-01-25T15:46:45.547Z,41.00
2018-01-25T15:49:13.173Z,42.30
2018-01-25T15:51:40.797Z,41.40
2018-01-25T15:54:08.441Z,40.90
2018-01-25T15:56:36.821Z,41.20
2018-01-25T15:59:05.205Z,40.60
2018-01-25T16:01:32.857Z,40.50
2018-01-25T16:04:01.056Z,39.90
2018-01-25T16:06:28.669Z,40.40
2018-01-25T16:08:57.306Z,40.30
2018-01-25T16:11:25.261Z,40.40
2018-01-25T16:13:53.153Z,40.10
2018-01-25T16:16:21.598Z,40.40
2018-01-25T16:18:49.350Z,40.20
2018-01-25T16:21:17.085Z,39.50
2018-01-25T16:23:44.733Z,40.30
2018-01-25T16:26:13.653Z,40.20
2018-01-25T16:28:42.953Z,40.20
2018-01-25T16:31:11.813Z,41.10
2018-01-25T16:33:39.649Z,41.10
2018-01-25T16:36:08.168Z,40.90
2018-01-25T16:38:35.864Z,41.10
2018-01-25T16:41:04.120Z,41.00
2018-01-25T16:43:31.732Z,41.00
2018-01-25T16:46:01.459Z,41.40
2018-01-25T16:48:30.478Z,41.30
2018-01-25T16:51:00.139Z,41.50
2018-01-25T16:53:28.259Z,42.00
2018-01-25T16:55:57.697Z,41.70
2018-01-25T16:58:26.471Z,42.50
2018-01-25T17:00:54.788Z,42.00
2018-01-25T17:03:23.891Z,42.10
2018-01-25T17:05:51.502Z,41.80
2018-01-25T17:08:20.284Z,41.60
2018-01-25T17:10:48.840Z,41.50
2018-01-25T17:13:17.213Z,41.50
2018-01-25T17:15:44.876Z,41.90
2018-01-25T17:18:12.489Z,41.70
2018-01-25T17:20:40.101Z,41.70
2018-01-25T17:23:09.069Z,41.50
2018-01-25T17:25:36.684Z,41.50
2018-01-25T17:28:05.097Z,42.20
2018-01-25T17:30:34.137Z,42.20
2018-01-25T17:33:04.493Z,42.60
2018-01-25T17:35:33.174Z,43.20
2018-01-25T17:38:01.602Z,43.20
2018-01-25T17:40:29.343Z,42.90
2018-01-25T17:42:58.382Z,43.30
2018-01-25T17:45:27.047Z,44.40
2018-01-25T17:47:54.657Z,43.90
2018-01-25T17:50:25.894Z,43.90
2018-01-25T17:52:54.090Z,43.80
2018-01-25T17:55:24.203Z,44.30
2018-01-25T17:57:53.805Z,44.20
2018-01-25T18:00:22.515Z,43.90
2018-01-25T18:02:51.626Z,44.10
2018-01-25T18:05:19.830Z,44.40
2018-01-25T18:07:47.482Z,44.50
2018-01-25T18:10:15.705Z,44.80
2018-01-25T18:12:44.084Z,45.20
2018-01-25T18:15:11.989Z,44.60
2018-01-25T18:17:39.607Z,44.30
2018-01-25T18:20:07.257Z,44.70
2018-01-25T18:22:35.694Z,45.00
2018-01-25T18:25:03.315Z,45.00
2018-01-25T18:27:31.000Z,45.10
2018-01-25T18:29:58.616Z,44.90
2018-01-25T18:32:26.228Z,44.70
2018-01-25T18:34:54.645Z,46.10
2018-01-25T18:37:22.259Z,45.30
2018-01-25T18:39:49.871Z,45.00
2018-01-25T18:42:18.286Z,44.80
2018-01-25T18:44:45.902Z,44.80
2018-01-25T18:47:13.537Z,45.40
2018-01-25T18:49:41.186Z,45.10
2018-01-25T18:52:09.569Z,44.90
2018-01-25T18:54:39.154Z,44.90
2018-01-25T18:57:06.801Z,45.70
2018-01-25T18:59:34.421Z,44.70
2018-01-25T19:02:02.029Z,44.80
2018-01-25T19:04:30.536Z,43.70
2018-01-25T19:06:58.757Z,43.70
2018-01-25T19:09:26.373Z,43.80
2018-01-25T19:11:54.808Z,45.20
2018-01-25T19:14:22.565Z,45.20
2018-01-25T19:16:50.214Z,44.80
2018-01-25T19:19:18.697Z,44.20
2018-01-25T19:21:46.331Z,44.90
2018-01-25T19:24:13.953Z,44.00
2018-01-25T19:26:42.389Z,45.50
2018-01-25T19:29:10.643Z,44.70
2018-01-25T19:31:42.884Z,45.00
2018-01-25T19:34:10.492Z,44.90
2018-01-25T19:36:38.872Z,45.30
2018-01-25T19:39:06.529Z,45.30
2018-01-25T19:41:34.823Z,44.80
2018-01-25T19:44:06.621Z,45.90
2018-01-25T19:46:35.266Z,45.70
2018-01-25T19:49:02.879Z,45.70
2018-01-25T19:51:30.690Z,45.70
2018-01-25T19:53:58.870Z,45.20
2018-01-25T19:56:31.413Z,44.90
2018-01-25T19:58:59.037Z,44.90
2018-01-25T20:01:32.149Z,45.20
2018-01-25T20:03:59.791Z,45.20
2018-01-25T20:06:28.190Z,45.50
2018-01-25T20:08:56.608Z,45.30
2018-01-25T20:11:24.324Z,45.30
2018-01-25T20:13:56.405Z,45.30
2018-01-25T20:16:24.749Z,45.20
2018-01-25T20:18:52.361Z,45.60
2018-01-25T20:21:20.008Z,45.60
2018-01-25T20:23:47.621Z,45.30
2018-01-25T20:26:15.238Z,45.40
2018-01-25T20:28:43.654Z,45.50
2018-01-25T20:31:11.256Z,45.50
2018-01-25T20:33:39.296Z,45.00
2018-01-25T20:36:12.671Z,44.60
2018-01-25T20:38:42.766Z,44.80
2018-01-25T20:41:10.488Z,45.30
2018-01-25T20:43:38.193Z,44.70
2018-01-25T20:46:05.830Z,44.60
2018-01-25T20:48:33.448Z,45.20
2018-01-25T20:51:01.098Z,45.40
2018-01-25T20:53:29.476Z,45.50
2018-01-25T20:55:57.090Z,45.50
2018-01-25T20:58:24.741Z,45.00
2018-01-25T21:00:53.182Z,44.50
2018-01-25T21:03:24.393Z,44.50
2018-01-25T21:05:52.848Z,45.20
2018-01-25T21:08:21.478Z,45.60
2018-01-25T21:10:50.400Z,45.60
2018-01-25T21:13:31.648Z,46.10
2018-01-25T21:15:59.701Z,46.10
2018-01-25T21:18:27.547Z,45.70
2018-01-25T21:20:55.418Z,45.30
2018-01-25T21:23:23.225Z,46.10
2018-01-25T21:25:51.986Z,47.30
2018-01-25T21:28:21.916Z,47.00
2018-01-25T21:30:51.859Z,48.10
2018-01-25T21:33:21.245Z,47.50
2018-01-25T21:35:50.102Z,47.80
2018-01-25T21:38:19.062Z,48.20
2018-01-25T21:40:49.375Z,49.20
2018-01-25T21:43:21.625Z,49.80
2018-01-25T21:45:50.433Z,49.80
2018-01-25T21:48:19.359Z,50.20
2018-01-25T21:50:48.892Z,50.10
2018-01-25T21:53:18.118Z,50.30
2018-01-25T21:55:46.378Z,50.40
2018-01-25T21:58:14.020Z,51.30
2018-01-25T22:00:43.162Z,50.70
2018-01-25T22:03:10.818Z,50.90
2018-01-25T22:05:39.285Z,51.20
2018-01-25T22:08:08.233Z,52.10
2018-01-25T22:10:36.976Z,52.90
2018-01-25T22:13:05.517Z,52.00
2018-01-25T22:15:34.394Z,52.00
2018-01-25T22:18:02.910Z,52.30
2018-01-25T22:20:43.071Z,53.50
2018-01-25T22:23:12.136Z,53.20
2018-01-25T22:25:39.755Z,52.50
2018-01-25T22:28:07.409Z,53.40
2018-01-25T22:30:35.021Z,54.40
2018-01-25T22:33:02.648Z,54.50
2018-01-25T22:35:31.077Z,54.40
2018-01-25T22:37:58.697Z,54.50
2018-01-25T22:40:26.313Z,55.20
2018-01-25T22:42:53.962Z,55.60
2018-01-25T22:45:22.342Z,55.80
2018-01-25T22:47:50.725Z,56.50
2018-01-25T22:50:18.384Z,56.50
2018-01-25T22:52:46.004Z,55.60
2018-01-25T22:55:13.616Z,56.30
2018-01-25T22:57:41.266Z,55.90
2018-01-25T23:00:08.886Z,56.30
2018-01-25T23:02:36.509Z,55.80
2018-01-25T23:05:04.206Z,55.90
2018-01-25T23:07:31.821Z,56.30
2018-01-25T23:09:59.438Z,56.20
2018-01-25T23:12:27.093Z,56.10
2018-01-25T23:14:55.473Z,55.10
2018-01-25T23:17:23.853Z,55.70
2018-01-25T23:19:51.505Z,55.70
2018-01-25T23:22:19.121Z,56.00
2018-01-25T23:24:47.505Z,56.10
2018-01-25T23:27:15.934Z,55.90
2018-01-25T23:29:43.549Z,55.90
2018-01-25T23:32:11.177Z,56.30
2018-01-25T23:34:38.829Z,56.60
2018-01-25T23:37:07.210Z,56.30
2018-01-25T23:39:35.596Z,55.70
2018-01-25T23:42:03.241Z,55.70
2018-01-25T23:44:30.862Z,55.60
2018-01-25T23:46:59.241Z,55.00
2018-01-25T23:49:27.656Z,55.30
2018-01-25T23:51:55.269Z,55.20
2018-01-25T23:54:22.885Z,55.50
2018-01-25T23:56:51.311Z,55.70
2018-01-25T23:59:18.921Z,55.70
